sensor_id;sensor_type;location;lat;lon;timestamp;temperature;humidity
75719;DHT22;64340;48.534;-3.036;2022-10-22T00:01:10;19.00;75.30
75719;DHT22;64340;48.534;-3.036;2022-10-22T00:03:35;19.00;75.30
75719;DHT22;64340;48.534;-3.036;2022-10-22T00:06:01;19.00;75.30
75719;DHT22;64340;48.534;-3.036;2022-10-22T00:08:26;19.00;75.30
75719;DHT22;64340;48.534;-3.036;2022-10-22T00:10:52;19.00;75.30
75719;DHT22;64340;48.534;-3.036;2022-10-22T00:13:18;19.00;75.20
75719;DHT22;64340;48.534;-3.036;2022-10-22T00:15:44;19.00;75.20
75719;DHT22;64340;48.534;-3.036;2022-10-22T00:18:10;19.00;75.30
75719;DHT22;64340;48.534;-3.036;2022-10-22T00:20:35;19.00;75.20
75719;DHT22;64340;48.534;-3.036;2022-10-22T00:23:01;19.00;75.20
75719;DHT22;64340;48.534;-3.036;2022-10-22T00:25:26;19.00;75.20
75719;DHT22;64340;48.534;-3.036;2022-10-22T00:27:52;18.90;75.20
75719;DHT22;64340;48.534;-3.036;2022-10-22T00:30:18;18.90;75.20
75719;DHT22;64340;48.534;-3.036;2022-10-22T00:32:44;19.00;75.20
75719;DHT22;64340;48.534;-3.036;2022-10-22T00:35:09;19.00;75.20
75719;DHT22;64340;48.534;-3.036;2022-10-22T00:37:35;18.90;75.20
75719;DHT22;64340;48.534;-3.036;2022-10-22T00:40:01;18.90;75.20
75719;DHT22;64340;48.534;-3.036;2022-10-22T00:42:27;18.90;75.20
75719;DHT22;64340;48.534;-3.036;2022-10-22T00:47:33;18.90;75.20
75719;DHT22;64340;48.534;-3.036;2022-10-22T00:49:59;18.90;75.20
75719;DHT22;64340;48.534;-3.036;2022-10-22T00:52:26;18.90;75.20
75719;DHT22;64340;48.534;-3.036;2022-10-22T00:54:52;18.90;75.20
75719;DHT22;64340;48.534;-3.036;2022-10-22T00:57:18;18.90;75.20
75719;DHT22;64340;48.534;-3.036;2022-10-22T00:59:44;18.90;75.20
75719;DHT22;64340;48.534;-3.036;2022-10-22T01:02:10;18.90;75.20
75719;DHT22;64340;48.534;-3.036;2022-10-22T01:04:36;18.90;75.10
75719;DHT22;64340;48.534;-3.036;2022-10-22T01:07:01;18.90;75.10
75719;DHT22;64340;48.534;-3.036;2022-10-22T01:09:36;18.90;75.10
75719;DHT22;64340;48.534;-3.036;2022-10-22T01:12:09;18.90;75.10
75719;DHT22;64340;48.534;-3.036;2022-10-22T01:14:42;18.90;75.10
75719;DHT22;64340;48.534;-3.036;2022-10-22T01:17:14;18.90;75.10
75719;DHT22;64340;48.534;-3.036;2022-10-22T01:22:20;18.90;75.10
75719;DHT22;64340;48.534;-3.036;2022-10-22T01:29:40;18.90;75.10
75719;DHT22;64340;48.534;-3.036;2022-10-22T01:32:14;18.90;75.10
75719;DHT22;64340;48.534;-3.036;2022-10-22T01:34:41;18.90;75.10
75719;DHT22;64340;48.534;-3.036;2022-10-22T01:37:08;18.90;75.10
75719;DHT22;64340;48.534;-3.036;2022-10-22T01:39:35;18.80;75.10
75719;DHT22;64340;48.534;-3.036;2022-10-22T01:42:01;18.80;75.10
75719;DHT22;64340;48.534;-3.036;2022-10-22T01:44:27;18.80;75.10
75719;DHT22;64340;48.534;-3.036;2022-10-22T01:46:57;18.80;75.10
75719;DHT22;64340;48.534;-3.036;2022-10-22T01:49:29;18.80;75.10
75719;DHT22;64340;48.534;-3.036;2022-10-22T01:52:10;18.80;75.10
75719;DHT22;64340;48.534;-3.036;2022-10-22T01:54:55;18.80;75.00
75719;DHT22;64340;48.534;-3.036;2022-10-22T01:57:29;18.80;75.10
75719;DHT22;64340;48.534;-3.036;2022-10-22T02:00:03;18.80;75.00
75719;DHT22;64340;48.534;-3.036;2022-10-22T02:02:34;18.80;75.00
75719;DHT22;64340;48.534;-3.036;2022-10-22T02:05:12;18.80;75.00
75719;DHT22;64340;48.534;-3.036;2022-10-22T02:07:40;18.80;75.00
75719;DHT22;64340;48.534;-3.036;2022-10-22T02:10:07;18.80;75.00
75719;DHT22;64340;48.534;-3.036;2022-10-22T02:12:33;18.80;75.00
75719;DHT22;64340;48.534;-3.036;2022-10-22T02:14:59;18.80;75.00
75719;DHT22;64340;48.534;-3.036;2022-10-22T02:17:27;18.80;75.00
75719;DHT22;64340;48.534;-3.036;2022-10-22T02:19:54;18.80;75.00
75719;DHT22;64340;48.534;-3.036;2022-10-22T02:22:21;18.80;75.00
75719;DHT22;64340;48.534;-3.036;2022-10-22T02:24:48;18.80;75.00
75719;DHT22;64340;48.534;-3.036;2022-10-22T02:27:22;18.80;75.00
75719;DHT22;64340;48.534;-3.036;2022-10-22T02:29:54;18.80;75.00
75719;DHT22;64340;48.534;-3.036;2022-10-22T02:32:23;18.80;75.00
75719;DHT22;64340;48.534;-3.036;2022-10-22T02:34:50;18.80;75.00
75719;DHT22;64340;48.534;-3.036;2022-10-22T02:37:17;18.80;75.00
75719;DHT22;64340;48.534;-3.036;2022-10-22T02:39:43;18.70;75.00
75719;DHT22;64340;48.534;-3.036;2022-10-22T02:42:09;18.70;75.00
75719;DHT22;64340;48.534;-3.036;2022-10-22T02:44:36;18.70;75.00
75719;DHT22;64340;48.534;-3.036;2022-10-22T02:47:02;18.70;75.00
75719;DHT22;64340;48.534;-3.036;2022-10-22T02:49:27;18.70;75.00
75719;DHT22;64340;48.534;-3.036;2022-10-22T02:51:53;18.70;75.00
75719;DHT22;64340;48.534;-3.036;2022-10-22T02:54:18;18.70;75.00
75719;DHT22;64340;48.534;-3.036;2022-10-22T02:56:44;18.70;75.00
75719;DHT22;64340;48.534;-3.036;2022-10-22T02:59:10;18.70;74.90
75719;DHT22;64340;48.534;-3.036;2022-10-22T03:01:35;18.70;75.00
75719;DHT22;64340;48.534;-3.036;2022-10-22T03:04:01;18.70;75.00
75719;DHT22;64340;48.534;-3.036;2022-10-22T03:06:26;18.70;75.00
75719;DHT22;64340;48.534;-3.036;2022-10-22T03:08:52;18.70;74.90
75719;DHT22;64340;48.534;-3.036;2022-10-22T03:11:18;18.70;75.00
75719;DHT22;64340;48.534;-3.036;2022-10-22T03:13:43;18.70;75.00
75719;DHT22;64340;48.534;-3.036;2022-10-22T03:16:09;18.70;75.00
75719;DHT22;64340;48.534;-3.036;2022-10-22T03:18:35;18.70;74.90
75719;DHT22;64340;48.534;-3.036;2022-10-22T03:21:03;18.70;74.90
75719;DHT22;64340;48.534;-3.036;2022-10-22T03:23:30;18.70;74.90
75719;DHT22;64340;48.534;-3.036;2022-10-22T03:25:56;18.70;74.90
75719;DHT22;64340;48.534;-3.036;2022-10-22T03:28:21;18.70;74.90
75719;DHT22;64340;48.534;-3.036;2022-10-22T03:30:47;18.70;74.90
75719;DHT22;64340;48.534;-3.036;2022-10-22T03:33:13;18.70;74.90
75719;DHT22;64340;48.534;-3.036;2022-10-22T03:35:40;18.70;74.90
75719;DHT22;64340;48.534;-3.036;2022-10-22T03:38:07;18.70;74.90
75719;DHT22;64340;48.534;-3.036;2022-10-22T03:40:32;18.70;74.90
75719;DHT22;64340;48.534;-3.036;2022-10-22T03:42:58;18.60;74.90
75719;DHT22;64340;48.534;-3.036;2022-10-22T03:45:24;18.60;74.90
75719;DHT22;64340;48.534;-3.036;2022-10-22T03:47:49;18.60;74.90
75719;DHT22;64340;48.534;-3.036;2022-10-22T03:50:15;18.70;74.90
75719;DHT22;64340;48.534;-3.036;2022-10-22T03:52:41;18.60;74.90
75719;DHT22;64340;48.534;-3.036;2022-10-22T03:55:07;18.60;74.90
75719;DHT22;64340;48.534;-3.036;2022-10-22T03:57:33;18.60;74.90
75719;DHT22;64340;48.534;-3.036;2022-10-22T03:59:59;18.60;74.80
75719;DHT22;64340;48.534;-3.036;2022-10-22T04:02:24;18.60;74.90
75719;DHT22;64340;48.534;-3.036;2022-10-22T04:04:50;18.60;74.80
75719;DHT22;64340;48.534;-3.036;2022-10-22T04:07:15;18.60;74.80
75719;DHT22;64340;48.534;-3.036;2022-10-22T04:09:41;18.60;74.80
75719;DHT22;64340;48.534;-3.036;2022-10-22T04:12:07;18.60;74.90
75719;DHT22;64340;48.534;-3.036;2022-10-22T04:14:33;18.60;74.80
75719;DHT22;64340;48.534;-3.036;2022-10-22T04:16:59;18.60;74.80
75719;DHT22;64340;48.534;-3.036;2022-10-22T04:19:25;18.60;74.80
75719;DHT22;64340;48.534;-3.036;2022-10-22T04:21:50;18.60;74.80
75719;DHT22;64340;48.534;-3.036;2022-10-22T04:24:16;18.60;74.80
75719;DHT22;64340;48.534;-3.036;2022-10-22T04:26:42;18.60;74.80
75719;DHT22;64340;48.534;-3.036;2022-10-22T04:29:07;18.60;74.80
75719;DHT22;64340;48.534;-3.036;2022-10-22T04:31:33;18.60;74.80
75719;DHT22;64340;48.534;-3.036;2022-10-22T04:33:59;18.60;74.80
75719;DHT22;64340;48.534;-3.036;2022-10-22T04:36:25;18.60;74.80
75719;DHT22;64340;48.534;-3.036;2022-10-22T04:38:56;18.60;74.80
75719;DHT22;64340;48.534;-3.036;2022-10-22T04:41:24;18.60;74.80
75719;DHT22;64340;48.534;-3.036;2022-10-22T04:43:49;18.50;74.80
75719;DHT22;64340;48.534;-3.036;2022-10-22T04:46:15;18.50;74.80
75719;DHT22;64340;48.534;-3.036;2022-10-22T04:48:42;18.60;74.80
75719;DHT22;64340;48.534;-3.036;2022-10-22T04:51:09;18.50;74.80
75719;DHT22;64340;48.534;-3.036;2022-10-22T04:53:35;18.60;74.80
75719;DHT22;64340;48.534;-3.036;2022-10-22T04:56:21;18.50;74.80
75719;DHT22;64340;48.534;-3.036;2022-10-22T04:58:48;18.50;74.80
75719;DHT22;64340;48.534;-3.036;2022-10-22T05:01:15;18.60;74.70
75719;DHT22;64340;48.534;-3.036;2022-10-22T05:03:41;18.50;74.80
75719;DHT22;64340;48.534;-3.036;2022-10-22T05:06:07;18.50;74.80
75719;DHT22;64340;48.534;-3.036;2022-10-22T05:08:33;18.50;74.80
75719;DHT22;64340;48.534;-3.036;2022-10-22T05:10:58;18.50;74.80
75719;DHT22;64340;48.534;-3.036;2022-10-22T05:13:24;18.50;74.70
75719;DHT22;64340;48.534;-3.036;2022-10-22T05:15:50;18.50;74.80
75719;DHT22;64340;48.534;-3.036;2022-10-22T05:18:15;18.50;74.80
75719;DHT22;64340;48.534;-3.036;2022-10-22T05:20:41;18.50;74.70
75719;DHT22;64340;48.534;-3.036;2022-10-22T05:23:07;18.50;74.70
75719;DHT22;64340;48.534;-3.036;2022-10-22T05:25:38;18.50;74.70
75719;DHT22;64340;48.534;-3.036;2022-10-22T05:28:04;18.50;74.70
75719;DHT22;64340;48.534;-3.036;2022-10-22T05:30:30;18.50;74.70
75719;DHT22;64340;48.534;-3.036;2022-10-22T05:32:55;18.50;74.70
75719;DHT22;64340;48.534;-3.036;2022-10-22T05:35:21;18.50;74.70
75719;DHT22;64340;48.534;-3.036;2022-10-22T05:37:46;18.50;74.70
75719;DHT22;64340;48.534;-3.036;2022-10-22T05:40:12;18.50;74.70
75719;DHT22;64340;48.534;-3.036;2022-10-22T05:42:38;18.50;74.70
75719;DHT22;64340;48.534;-3.036;2022-10-22T05:45:04;18.50;74.70
75719;DHT22;64340;48.534;-3.036;2022-10-22T05:47:29;18.50;74.70
75719;DHT22;64340;48.534;-3.036;2022-10-22T05:49:55;18.50;74.70
75719;DHT22;64340;48.534;-3.036;2022-10-22T05:52:24;18.50;74.70
75719;DHT22;64340;48.534;-3.036;2022-10-22T05:54:49;18.50;74.70
75719;DHT22;64340;48.534;-3.036;2022-10-22T05:57:15;18.50;74.70
75719;DHT22;64340;48.534;-3.036;2022-10-22T05:59:41;18.50;74.70
75719;DHT22;64340;48.534;-3.036;2022-10-22T06:02:07;18.40;74.70
75719;DHT22;64340;48.534;-3.036;2022-10-22T06:04:33;18.50;74.70
75719;DHT22;64340;48.534;-3.036;2022-10-22T06:06:59;18.50;74.70
75719;DHT22;64340;48.534;-3.036;2022-10-22T06:09:26;18.40;74.70
75719;DHT22;64340;48.534;-3.036;2022-10-22T06:11:52;18.50;74.70
75719;DHT22;64340;48.534;-3.036;2022-10-22T06:14:18;18.40;74.70
75719;DHT22;64340;48.534;-3.036;2022-10-22T06:16:44;18.40;74.70
75719;DHT22;64340;48.534;-3.036;2022-10-22T06:19:10;18.40;74.70
75719;DHT22;64340;48.534;-3.036;2022-10-22T06:21:36;18.40;74.70
75719;DHT22;64340;48.534;-3.036;2022-10-22T06:24:02;18.40;74.70
75719;DHT22;64340;48.534;-3.036;2022-10-22T06:26:28;18.40;74.70
75719;DHT22;64340;48.534;-3.036;2022-10-22T06:28:54;18.40;74.70
75719;DHT22;64340;48.534;-3.036;2022-10-22T06:31:20;18.40;74.70
75719;DHT22;64340;48.534;-3.036;2022-10-22T06:33:46;18.40;74.70
75719;DHT22;64340;48.534;-3.036;2022-10-22T06:36:15;18.40;74.70
75719;DHT22;64340;48.534;-3.036;2022-10-22T06:38:41;18.40;74.80
75719;DHT22;64340;48.534;-3.036;2022-10-22T06:41:11;18.40;74.70
75719;DHT22;64340;48.534;-3.036;2022-10-22T06:43:37;18.40;74.70
75719;DHT22;64340;48.534;-3.036;2022-10-22T06:46:04;18.40;74.70
75719;DHT22;64340;48.534;-3.036;2022-10-22T06:48:31;18.40;74.70
75719;DHT22;64340;48.534;-3.036;2022-10-22T06:51:01;18.40;74.70
75719;DHT22;64340;48.534;-3.036;2022-10-22T06:53:27;18.40;74.70
75719;DHT22;64340;48.534;-3.036;2022-10-22T06:55:52;18.40;74.70
75719;DHT22;64340;48.534;-3.036;2022-10-22T06:58:18;18.40;74.70
75719;DHT22;64340;48.534;-3.036;2022-10-22T07:00:43;18.40;74.70
75719;DHT22;64340;48.534;-3.036;2022-10-22T07:03:12;18.40;74.70
75719;DHT22;64340;48.534;-3.036;2022-10-22T07:05:38;18.40;74.60
75719;DHT22;64340;48.534;-3.036;2022-10-22T07:08:04;18.40;74.70
75719;DHT22;64340;48.534;-3.036;2022-10-22T07:10:30;18.40;74.70
75719;DHT22;64340;48.534;-3.036;2022-10-22T07:12:56;18.40;74.70
75719;DHT22;64340;48.534;-3.036;2022-10-22T07:15:22;18.40;74.60
75719;DHT22;64340;48.534;-3.036;2022-10-22T07:17:48;18.40;74.70
75719;DHT22;64340;48.534;-3.036;2022-10-22T07:20:13;18.40;74.70
75719;DHT22;64340;48.534;-3.036;2022-10-22T07:22:40;18.40;74.70
75719;DHT22;64340;48.534;-3.036;2022-10-22T07:25:06;18.40;74.60
75719;DHT22;64340;48.534;-3.036;2022-10-22T07:27:32;18.40;74.60
75719;DHT22;64340;48.534;-3.036;2022-10-22T07:29:57;18.40;74.60
75719;DHT22;64340;48.534;-3.036;2022-10-22T07:32:25;18.40;74.60
75719;DHT22;64340;48.534;-3.036;2022-10-22T07:34:50;18.40;74.60
75719;DHT22;64340;48.534;-3.036;2022-10-22T07:37:16;18.40;74.60
75719;DHT22;64340;48.534;-3.036;2022-10-22T07:39:46;18.40;74.60
75719;DHT22;64340;48.534;-3.036;2022-10-22T07:42:12;18.40;74.60
75719;DHT22;64340;48.534;-3.036;2022-10-22T07:44:38;18.40;74.60
75719;DHT22;64340;48.534;-3.036;2022-10-22T07:47:03;18.40;74.50
75719;DHT22;64340;48.534;-3.036;2022-10-22T07:49:29;18.40;74.60
75719;DHT22;64340;48.534;-3.036;2022-10-22T07:51:54;18.40;74.50
75719;DHT22;64340;48.534;-3.036;2022-10-22T07:54:21;18.40;74.50
75719;DHT22;64340;48.534;-3.036;2022-10-22T07:56:47;18.40;74.50
75719;DHT22;64340;48.534;-3.036;2022-10-22T07:59:12;18.40;74.50
75719;DHT22;64340;48.534;-3.036;2022-10-22T08:01:38;18.40;74.50
75719;DHT22;64340;48.534;-3.036;2022-10-22T08:04:04;18.40;74.50
75719;DHT22;64340;48.534;-3.036;2022-10-22T08:06:32;18.40;74.40
75719;DHT22;64340;48.534;-3.036;2022-10-22T08:08:58;18.40;74.40
75719;DHT22;64340;48.534;-3.036;2022-10-22T08:11:24;18.40;74.40
75719;DHT22;64340;48.534;-3.036;2022-10-22T08:13:51;18.40;74.40
75719;DHT22;64340;48.534;-3.036;2022-10-22T08:16:17;18.40;74.40
75719;DHT22;64340;48.534;-3.036;2022-10-22T08:18:42;18.40;74.40
75719;DHT22;64340;48.534;-3.036;2022-10-22T08:21:08;18.40;74.40
75719;DHT22;64340;48.534;-3.036;2022-10-22T08:23:34;18.40;74.30
75719;DHT22;64340;48.534;-3.036;2022-10-22T08:26:00;18.40;74.40
75719;DHT22;64340;48.534;-3.036;2022-10-22T08:28:27;18.40;74.40
75719;DHT22;64340;48.534;-3.036;2022-10-22T08:30:54;18.40;74.40
75719;DHT22;64340;48.534;-3.036;2022-10-22T08:33:19;18.40;74.30
75719;DHT22;64340;48.534;-3.036;2022-10-22T08:35:48;18.40;74.30
75719;DHT22;64340;48.534;-3.036;2022-10-22T08:38:14;18.40;74.30
75719;DHT22;64340;48.534;-3.036;2022-10-22T08:40:40;18.40;74.30
75719;DHT22;64340;48.534;-3.036;2022-10-22T08:50:51;18.40;74.30
75719;DHT22;64340;48.534;-3.036;2022-10-22T08:53:21;18.40;74.30
75719;DHT22;64340;48.534;-3.036;2022-10-22T08:55:51;18.40;74.30
75719;DHT22;64340;48.534;-3.036;2022-10-22T09:08:17;18.40;74.20
75719;DHT22;64340;48.534;-3.036;2022-10-22T09:10:47;18.40;74.20
75719;DHT22;64340;48.534;-3.036;2022-10-22T09:13:16;18.40;74.20
75719;DHT22;64340;48.534;-3.036;2022-10-22T09:15:48;18.40;74.20
75719;DHT22;64340;48.534;-3.036;2022-10-22T09:18:20;18.40;74.20
75719;DHT22;64340;48.534;-3.036;2022-10-22T09:20:49;18.40;74.20
75719;DHT22;64340;48.534;-3.036;2022-10-22T09:25:53;18.40;74.10
75719;DHT22;64340;48.534;-3.036;2022-10-22T09:28:19;18.40;74.20
75719;DHT22;64340;48.534;-3.036;2022-10-22T09:30:45;18.40;74.20
75719;DHT22;64340;48.534;-3.036;2022-10-22T09:33:13;18.40;74.20
75719;DHT22;64340;48.534;-3.036;2022-10-22T09:38:14;18.40;74.10
75719;DHT22;64340;48.534;-3.036;2022-10-22T09:40:47;18.40;74.10
75719;DHT22;64340;48.534;-3.036;2022-10-22T09:43:14;18.40;74.10
75719;DHT22;64340;48.534;-3.036;2022-10-22T09:45:40;18.40;74.10
75719;DHT22;64340;48.534;-3.036;2022-10-22T09:48:48;18.40;74.20
75719;DHT22;64340;48.534;-3.036;2022-10-22T09:51:10;18.40;74.10
75719;DHT22;64340;48.534;-3.036;2022-10-22T09:53:38;18.40;74.10
75719;DHT22;64340;48.534;-3.036;2022-10-22T09:56:07;18.40;74.10
75719;DHT22;64340;48.534;-3.036;2022-10-22T09:58:42;18.40;74.10
75719;DHT22;64340;48.534;-3.036;2022-10-22T10:01:14;18.40;74.10
75719;DHT22;64340;48.534;-3.036;2022-10-22T10:03:40;18.40;74.10
75719;DHT22;64340;48.534;-3.036;2022-10-22T10:06:06;18.40;74.10
75719;DHT22;64340;48.534;-3.036;2022-10-22T10:08:31;18.40;74.10
75719;DHT22;64340;48.534;-3.036;2022-10-22T10:10:58;18.40;74.10
75719;DHT22;64340;48.534;-3.036;2022-10-22T10:24:01;18.40;74.10
75719;DHT22;64340;48.534;-3.036;2022-10-22T10:29:17;18.40;74.10
75719;DHT22;64340;48.534;-3.036;2022-10-22T10:31:51;18.40;74.10
75719;DHT22;64340;48.534;-3.036;2022-10-22T10:34:35;18.40;74.10
75719;DHT22;64340;48.534;-3.036;2022-10-22T10:37:13;18.40;74.10
75719;DHT22;64340;48.534;-3.036;2022-10-22T10:39:55;18.40;74.10
75719;DHT22;64340;48.534;-3.036;2022-10-22T10:44:52;18.40;74.10
75719;DHT22;64340;48.534;-3.036;2022-10-22T10:47:35;18.40;74.10
75719;DHT22;64340;48.534;-3.036;2022-10-22T10:50:13;18.40;74.20
75719;DHT22;64340;48.534;-3.036;2022-10-22T10:55:29;18.40;74.10
75719;DHT22;64340;48.534;-3.036;2022-10-22T11:00:25;18.40;74.10
75719;DHT22;64340;48.534;-3.036;2022-10-22T11:05:52;18.30;74.10
75719;DHT22;64340;48.534;-3.036;2022-10-22T11:08:26;18.30;74.10
75719;DHT22;64340;48.534;-3.036;2022-10-22T11:13:42;18.30;74.20
75719;DHT22;64340;48.534;-3.036;2022-10-22T11:18:36;18.30;74.20
75719;DHT22;64340;48.534;-3.036;2022-10-22T11:21:26;18.30;74.20
75719;DHT22;64340;48.534;-3.036;2022-10-22T11:23:50;18.30;74.20
75719;DHT22;64340;48.534;-3.036;2022-10-22T11:26:28;18.30;74.20
75719;DHT22;64340;48.534;-3.036;2022-10-22T11:28:55;18.30;74.20
75719;DHT22;64340;48.534;-3.036;2022-10-22T11:31:23;18.30;74.20
75719;DHT22;64340;48.534;-3.036;2022-10-22T11:33:53;18.30;74.20
75719;DHT22;64340;48.534;-3.036;2022-10-22T11:36:22;18.30;74.20
75719;DHT22;64340;48.534;-3.036;2022-10-22T11:38:50;18.30;74.20
75719;DHT22;64340;48.534;-3.036;2022-10-22T11:41:16;18.30;74.20
75719;DHT22;64340;48.534;-3.036;2022-10-22T11:49:40;18.30;74.10
75719;DHT22;64340;48.534;-3.036;2022-10-22T11:51:35;18.30;74.10
75719;DHT22;64340;48.534;-3.036;2022-10-22T11:54:06;18.30;74.10
75719;DHT22;64340;48.534;-3.036;2022-10-22T11:56:47;18.30;74.10
75719;DHT22;64340;48.534;-3.036;2022-10-22T11:59:37;18.30;74.10
75719;DHT22;64340;48.534;-3.036;2022-10-22T12:02:19;18.30;74.10
75719;DHT22;64340;48.534;-3.036;2022-10-22T12:04:47;18.30;74.00
75719;DHT22;64340;48.534;-3.036;2022-10-22T12:09:57;18.40;74.00
75719;DHT22;64340;48.534;-3.036;2022-10-22T12:12:22;18.30;74.10
75719;DHT22;64340;48.534;-3.036;2022-10-22T12:14:57;18.40;74.00
75719;DHT22;64340;48.534;-3.036;2022-10-22T12:17:23;18.30;74.00
75719;DHT22;64340;48.534;-3.036;2022-10-22T12:20:06;18.40;74.00
75719;DHT22;64340;48.534;-3.036;2022-10-22T12:22:32;18.30;74.10
75719;DHT22;64340;48.534;-3.036;2022-10-22T12:25:00;18.40;74.00
75719;DHT22;64340;48.534;-3.036;2022-10-22T12:27:32;18.40;74.00
75719;DHT22;64340;48.534;-3.036;2022-10-22T12:29:58;18.30;74.00
75719;DHT22;64340;48.534;-3.036;2022-10-22T12:32:42;18.40;74.00
75719;DHT22;64340;48.534;-3.036;2022-10-22T12:35:15;18.40;74.00
75719;DHT22;64340;48.534;-3.036;2022-10-22T12:37:41;18.40;74.00
75719;DHT22;64340;48.534;-3.036;2022-10-22T12:40:17;18.40;74.00
75719;DHT22;64340;48.534;-3.036;2022-10-22T12:42:47;18.40;74.00
75719;DHT22;64340;48.534;-3.036;2022-10-22T12:45:13;18.40;74.00
75719;DHT22;64340;48.534;-3.036;2022-10-22T12:47:38;18.40;74.00
75719;DHT22;64340;48.534;-3.036;2022-10-22T12:50:04;18.30;74.00
75719;DHT22;64340;48.534;-3.036;2022-10-22T12:52:30;18.40;74.00
75719;DHT22;64340;48.534;-3.036;2022-10-22T12:54:55;18.40;74.00
75719;DHT22;64340;48.534;-3.036;2022-10-22T12:57:21;18.40;74.00
75719;DHT22;64340;48.534;-3.036;2022-10-22T12:59:47;18.40;74.00
75719;DHT22;64340;48.534;-3.036;2022-10-22T13:02:18;18.40;74.00
75719;DHT22;64340;48.534;-3.036;2022-10-22T13:07:36;18.40;74.10
75719;DHT22;64340;48.534;-3.036;2022-10-22T13:10:13;18.30;74.00
75719;DHT22;64340;48.534;-3.036;2022-10-22T13:12:38;18.30;74.00
75719;DHT22;64340;48.534;-3.036;2022-10-22T13:15:18;18.30;74.00
75719;DHT22;64340;48.534;-3.036;2022-10-22T13:17:45;18.40;74.00
75719;DHT22;64340;48.534;-3.036;2022-10-22T13:20:21;18.40;74.00
75719;DHT22;64340;48.534;-3.036;2022-10-22T13:22:54;18.30;74.00
75719;DHT22;64340;48.534;-3.036;2022-10-22T13:25:31;18.40;74.00
75719;DHT22;64340;48.534;-3.036;2022-10-22T13:27:59;18.40;74.00
75719;DHT22;64340;48.534;-3.036;2022-10-22T13:30:32;18.40;74.00
75719;DHT22;64340;48.534;-3.036;2022-10-22T13:32:59;18.30;74.00
75719;DHT22;64340;48.534;-3.036;2022-10-22T13:35:30;18.40;74.00
75719;DHT22;64340;48.534;-3.036;2022-10-22T13:37:57;18.40;74.00
75719;DHT22;64340;48.534;-3.036;2022-10-22T13:40:23;18.40;74.00
75719;DHT22;64340;48.534;-3.036;2022-10-22T13:42:49;18.40;74.00
75719;DHT22;64340;48.534;-3.036;2022-10-22T13:45:15;18.40;74.00
75719;DHT22;64340;48.534;-3.036;2022-10-22T13:47:41;18.40;74.00
75719;DHT22;64340;48.534;-3.036;2022-10-22T13:50:13;18.40;74.00
75719;DHT22;64340;48.534;-3.036;2022-10-22T13:52:40;18.30;74.00
75719;DHT22;64340;48.534;-3.036;2022-10-22T13:55:13;18.40;74.00
75719;DHT22;64340;48.534;-3.036;2022-10-22T13:57:39;18.40;74.00
75719;DHT22;64340;48.534;-3.036;2022-10-22T14:00:05;18.30;74.10
75719;DHT22;64340;48.534;-3.036;2022-10-22T14:02:31;18.40;74.00
75719;DHT22;64340;48.534;-3.036;2022-10-22T14:04:57;18.40;74.00
75719;DHT22;64340;48.534;-3.036;2022-10-22T14:07:27;18.30;74.10
75719;DHT22;64340;48.534;-3.036;2022-10-22T14:09:53;18.30;74.00
75719;DHT22;64340;48.534;-3.036;2022-10-22T14:12:18;18.30;74.10
75719;DHT22;64340;48.534;-3.036;2022-10-22T14:14:44;18.40;74.00
75719;DHT22;64340;48.534;-3.036;2022-10-22T14:17:13;18.40;74.00
75719;DHT22;64340;48.534;-3.036;2022-10-22T14:19:45;18.30;74.10
75719;DHT22;64340;48.534;-3.036;2022-10-22T14:22:12;18.30;74.10
75719;DHT22;64340;48.534;-3.036;2022-10-22T14:24:38;18.30;74.10
75719;DHT22;64340;48.534;-3.036;2022-10-22T14:27:04;18.30;74.00
75719;DHT22;64340;48.534;-3.036;2022-10-22T14:29:29;18.30;74.10
75719;DHT22;64340;48.534;-3.036;2022-10-22T14:31:55;18.40;74.10
75719;DHT22;64340;48.534;-3.036;2022-10-22T14:34:20;18.30;74.10
75719;DHT22;64340;48.534;-3.036;2022-10-22T14:36:46;18.30;74.10
75719;DHT22;64340;48.534;-3.036;2022-10-22T14:39:12;18.30;74.10
75719;DHT22;64340;48.534;-3.036;2022-10-22T14:41:38;18.30;74.10
75719;DHT22;64340;48.534;-3.036;2022-10-22T14:44:04;18.30;74.10
75719;DHT22;64340;48.534;-3.036;2022-10-22T14:46:29;18.30;74.10
75719;DHT22;64340;48.534;-3.036;2022-10-22T14:48:55;18.30;74.10
75719;DHT22;64340;48.534;-3.036;2022-10-22T14:51:21;18.30;74.10
75719;DHT22;64340;48.534;-3.036;2022-10-22T14:53:47;18.30;74.10
75719;DHT22;64340;48.534;-3.036;2022-10-22T14:56:14;18.30;74.10
75719;DHT22;64340;48.534;-3.036;2022-10-22T14:58:40;18.30;74.10
75719;DHT22;64340;48.534;-3.036;2022-10-22T15:01:06;18.30;74.10
75719;DHT22;64340;48.534;-3.036;2022-10-22T15:03:32;18.30;74.10
75719;DHT22;64340;48.534;-3.036;2022-10-22T15:05:57;18.30;74.10
75719;DHT22;64340;48.534;-3.036;2022-10-22T15:08:23;18.30;74.10
75719;DHT22;64340;48.534;-3.036;2022-10-22T15:10:56;18.30;74.10
75719;DHT22;64340;48.534;-3.036;2022-10-22T15:13:21;18.30;74.10
75719;DHT22;64340;48.534;-3.036;2022-10-22T15:15:47;18.30;74.10
75719;DHT22;64340;48.534;-3.036;2022-10-22T15:18:13;18.30;74.10
75719;DHT22;64340;48.534;-3.036;2022-10-22T15:20:38;18.30;74.10
75719;DHT22;64340;48.534;-3.036;2022-10-22T15:23:04;18.30;74.20
75719;DHT22;64340;48.534;-3.036;2022-10-22T15:25:29;18.30;74.20
75719;DHT22;64340;48.534;-3.036;2022-10-22T15:27:55;18.30;74.20
75719;DHT22;64340;48.534;-3.036;2022-10-22T15:30:21;18.30;74.20
75719;DHT22;64340;48.534;-3.036;2022-10-22T15:32:46;18.30;74.20
75719;DHT22;64340;48.534;-3.036;2022-10-22T15:35:12;18.30;74.20
75719;DHT22;64340;48.534;-3.036;2022-10-22T15:37:37;18.30;74.20
75719;DHT22;64340;48.534;-3.036;2022-10-22T15:40:04;18.30;74.20
75719;DHT22;64340;48.534;-3.036;2022-10-22T15:42:31;18.30;74.20
75719;DHT22;64340;48.534;-3.036;2022-10-22T15:44:57;18.30;74.20
75719;DHT22;64340;48.534;-3.036;2022-10-22T15:47:23;18.30;74.20
75719;DHT22;64340;48.534;-3.036;2022-10-22T15:49:52;18.30;74.20
75719;DHT22;64340;48.534;-3.036;2022-10-22T15:52:18;18.30;74.20
75719;DHT22;64340;48.534;-3.036;2022-10-22T15:54:45;18.30;74.20
75719;DHT22;64340;48.534;-3.036;2022-10-22T15:57:11;18.30;74.20
75719;DHT22;64340;48.534;-3.036;2022-10-22T15:59:37;18.30;74.20
75719;DHT22;64340;48.534;-3.036;2022-10-22T16:02:03;18.30;74.20
75719;DHT22;64340;48.534;-3.036;2022-10-22T16:04:28;18.30;74.20
75719;DHT22;64340;48.534;-3.036;2022-10-22T16:06:54;18.30;74.20
75719;DHT22;64340;48.534;-3.036;2022-10-22T16:09:22;18.30;74.20
75719;DHT22;64340;48.534;-3.036;2022-10-22T16:11:48;18.30;74.20
75719;DHT22;64340;48.534;-3.036;2022-10-22T16:14:15;18.30;74.30
75719;DHT22;64340;48.534;-3.036;2022-10-22T16:16:41;18.30;74.20
75719;DHT22;64340;48.534;-3.036;2022-10-22T16:19:08;18.30;74.20
75719;DHT22;64340;48.534;-3.036;2022-10-22T16:21:33;18.30;74.20
75719;DHT22;64340;48.534;-3.036;2022-10-22T16:23:59;18.30;74.20
75719;DHT22;64340;48.534;-3.036;2022-10-22T16:26:25;18.30;74.20
75719;DHT22;64340;48.534;-3.036;2022-10-22T16:28:51;18.30;74.20
75719;DHT22;64340;48.534;-3.036;2022-10-22T16:31:17;18.30;74.20